Terminal Aerodrome Forecast
Issued by NWS

Home | Current Version | Previous Version | Text Only | Print | Product List | Glossary On
Versions: 1 2 3 4 5 6 7 8 9 10 11 12 13 14 15 16 17 18 19 20 21 22
872
FTUS44 KLZK 272323
TAFBPK
TAF
KBPK 272323Z 2800/2824 15008KT P6SM SCT100 BKN250
     FM280600 14008KT P6SM VCSH BKN050 OVC100 WS020/18036KT
     FM281200 14015G22KT P6SM BKN025 OVC040
     FM281500 16015G25KT P6SM BKN015 OVC025 PROB30 2815/2818 SHRA
     FM281800 19008G15KT P6SM -RA BKN012 OVC035=

USA.gov is the U.S. government's official web portal to all federal, state and local government web resources and services.